Time;durP1;ratioP1;P1;durP2;ratioP2;P2;SDS_P1;SDS_P2;PMS_P1;PMS_P2;Temp;Humidity;BMP_temperature;BMP_pressure;BME280_temperature;BME280_humidity;BME280_pressure;Samples;Min_cycle;Max_cycle;Signal;HPM_P1;HPM_P2
2022/01/28 00:01:06;;;;;;;;;55.25;42.00;;;;;14.32;74.36;103037.22;5084009;27;61849;-78
2022/01/28 00:03:37;;;;;;;;;42.50;37.00;;;;;14.28;74.54;103032.56;5084561;28;61919;-78
2022/01/28 00:06:06;;;;;;;;;54.25;40.25;;;;;14.28;74.87;103029.91;5084403;28;62697;-78
2022/01/28 00:08:31;;;;;;;;;51.25;39.50;;;;;14.31;74.25;103037.16;5085242;27;62042;-78
2022/01/28 00:10:57;;;;;;;;;55.50;45.25;;;;;14.27;75.08;103030.75;5085318;28;61907;-78
2022/01/28 00:13:26;;;;;;;;;61.50;41.25;;;;;14.26;74.96;103039.47;5084531;28;62007;-78
2022/01/28 00:37:11;;;;;;;;;54.50;37.25;;;;;14.22;75.87;103055.00;5083975;28;62226;-78
2022/01/28 00:39:36;;;;;;;;;42.75;37.75;;;;;14.14;76.17;103062.44;5083848;28;62088;-78
2022/01/28 00:42:03;;;;;;;;;54.50;39.75;;;;;14.73;74.54;103065.44;5083165;28;61812;-77
2022/01/28 00:44:28;;;;;;;;;49.75;36.75;;;;;15.05;73.09;103057.75;5084818;28;62078;-78
2022/01/28 00:46:54;;;;;;;;;54.50;40.75;;;;;15.18;72.38;103059.41;5083597;28;62217;-78
2022/01/28 00:49:19;;;;;;;;;50.75;37.50;;;;;15.24;71.86;103057.16;5084216;28;61730;-77
2022/01/28 00:51:45;;;;;;;;;46.75;37.00;;;;;15.31;71.56;103060.25;5084284;28;61792;-77
2022/01/28 00:54:11;;;;;;;;;51.25;39.75;;;;;15.33;71.33;103063.91;5084642;28;61754;-78
2022/01/28 00:56:37;;;;;;;;;43.75;36.50;;;;;15.39;71.47;103067.78;5081935;28;63641;-78
2022/01/28 00:59:03;;;;;;;;;53.25;38.00;;;;;14.70;73.31;103078.47;5083189;28;61920;-77
2022/01/28 01:01:29;;;;;;;;;48.75;37.25;;;;;14.62;73.84;103092.94;5083976;28;61854;-78
2022/01/28 01:03:56;;;;;;;;;55.75;37.00;;;;;14.59;73.79;103090.09;5084121;27;62158;-77
2022/01/28 01:06:21;;;;;;;;;55.00;37.50;;;;;14.44;74.63;103083.75;5082948;27;61970;-77
2022/01/28 01:08:47;;;;;;;;;40.25;27.25;;;;;14.37;75.41;103086.81;5084149;28;61915;-77
2022/01/28 01:11:12;;;;;;;;;43.25;36.00;;;;;14.35;75.06;103085.78;5083018;28;61886;-77
2022/01/28 01:13:40;;;;;;;;;47.25;36.50;;;;;14.34;75.47;103087.53;5083962;28;61772;-77
2022/01/28 01:16:07;;;;;;;;;48.25;34.25;;;;;14.27;75.67;103088.84;5083204;28;61806;-77
2022/01/28 01:18:46;;;;;;;;;42.25;34.50;;;;;14.21;75.68;103088.44;5083696;28;61966;-77
2022/01/28 01:21:19;;;;;;;;;46.75;34.25;;;;;14.16;76.05;103097.81;5084124;28;61670;-77
2022/01/28 01:23:53;;;;;;;;;39.25;31.75;;;;;14.18;75.58;103098.81;5083662;28;62034;-77
2022/01/28 01:26:27;;;;;;;;;44.00;32.75;;;;;14.20;75.30;103099.81;5083101;27;62645;-77
2022/01/28 01:28:52;;;;;;;;;47.00;34.00;;;;;14.19;75.49;103092.72;5083759;28;62089;-77
2022/01/28 01:31:18;;;;;;;;;40.75;31.25;;;;;14.18;75.40;103097.88;5083232;28;62238;-77
2022/01/28 01:33:57;;;;;;;;;39.50;32.25;;;;;14.21;75.22;103101.66;5083882;28;62055;-77
2022/01/28 01:36:24;;;;;;;;;41.75;31.25;;;;;14.29;74.85;103099.53;5082901;28;61875;-78
2022/01/28 01:38:49;;;;;;;;;38.00;34.75;;;;;14.21;75.04;103099.00;5083683;28;61796;-78
2022/01/28 01:41:24;;;;;;;;;39.25;32.50;;;;;14.23;74.89;103100.03;5083871;28;61915;-77
2022/01/28 01:44:14;;;;;;;;;38.50;30.50;;;;;14.24;74.90;103108.88;5083355;27;61862;-78
2022/01/28 01:47:16;;;;;;;;;42.75;29.50;;;;;14.27;74.93;103106.44;5081784;28;63555;-77
2022/01/28 01:52:25;;;;;;;;;40.50;29.25;;;;;14.34;74.11;103128.91;5083854;28;62146;-77
2022/01/28 01:54:52;;;;;;;;;43.25;32.25;;;;;14.28;73.98;103121.47;5081890;28;62491;-77
2022/01/28 01:57:18;;;;;;;;;34.00;26.25;;;;;14.22;74.42;103121.97;5082599;28;62775;-77
2022/01/28 01:59:44;;;;;;;;;41.75;27.75;;;;;14.23;73.98;103118.53;5082868;28;61918;-77
2022/01/28 02:02:10;;;;;;;;;33.75;30.50;;;;;14.21;73.97;103130.72;5083549;28;61910;-77
2022/01/28 02:04:37;;;;;;;;;39.25;31.00;;;;;14.12;74.28;103130.09;5083441;28;61789;-77
2022/01/28 02:07:04;;;;;;;;;35.50;30.25;;;;;14.05;74.43;103136.69;5082406;28;61712;-78
2022/01/28 02:09:29;;;;;;;;;33.25;27.00;;;;;14.07;74.17;103145.66;5099026;27;62187;-77
2022/01/28 02:11:55;;;;;;;;;36.50;32.75;;;;;14.03;74.59;103146.25;5082844;27;61705;-77
2022/01/28 02:14:20;;;;;;;;;42.75;32.50;;;;;14.00;74.30;103145.09;5082440;28;62252;-77
2022/01/28 02:16:46;;;;;;;;;43.00;33.00;;;;;13.97;74.44;103148.47;5082541;28;63081;-77
2022/01/28 02:19:11;;;;;;;;;30.25;23.75;;;;;13.94;74.54;103150.88;5082829;28;61818;-77
2022/01/28 02:21:44;;;;;;;;;42.50;33.00;;;;;13.87;74.78;103151.28;5082982;28;61803;-77
2022/01/28 02:24:11;;;;;;;;;40.00;31.25;;;;;13.75;75.39;103150.41;5083244;28;62076;-77
2022/01/28 02:26:38;;;;;;;;;34.50;31.00;;;;;13.77;75.04;103148.78;5082147;28;61803;-77
2022/01/28 02:29:12;;;;;;;;;40.00;30.00;;;;;13.74;75.56;103159.16;5082296;28;61890;-77
2022/01/28 02:31:37;;;;;;;;;40.50;30.25;;;;;13.68;75.50;103144.69;5081431;28;62035;-78
2022/01/28 02:34:05;;;;;;;;;31.75;28.50;;;;;13.74;75.04;103152.16;5083003;28;61940;-77
2022/01/28 02:36:31;;;;;;;;;37.25;27.00;;;;;13.80;75.11;103152.56;5081981;28;61857;-77
2022/01/28 02:38:58;;;;;;;;;37.75;25.75;;;;;13.86;74.87;103163.56;5082508;28;62167;-77
2022/01/28 02:41:27;;;;;;;;;40.25;28.00;;;;;13.94;74.39;103163.16;5082776;27;61895;-77
2022/01/28 02:44:16;;;;;;;;;40.50;27.25;;;;;13.99;74.45;103164.38;5082173;27;62052;-77
2022/01/28 02:46:53;;;;;;;;;33.75;29.00;;;;;14.08;73.87;103157.13;5080238;28;64640;-77
2022/01/28 02:49:19;;;;;;;;;32.75;26.50;;;;;14.04;73.97;103149.78;5080293;28;61957;-77
2022/01/28 02:51:44;;;;;;;;;34.75;26.00;;;;;13.99;74.22;103157.41;5082245;28;62813;-77
2022/01/28 02:54:17;;;;;;;;;38.00;29.25;;;;;13.88;73.96;103155.72;5081343;28;62178;-77
2022/01/28 02:56:52;;;;;;;;;38.50;29.75;;;;;13.94;74.14;103156.16;5081056;27;62067;-77
2022/01/28 02:59:18;;;;;;;;;34.25;22.00;;;;;13.94;74.14;103156.16;5082717;27;61768;-77
2022/01/28 03:01:43;;;;;;;;;33.75;30.25;;;;;13.93;73.78;103159.63;5080883;28;62255;-77
2022/01/28 03:04:12;;;;;;;;;33.25;24.00;;;;;13.90;74.02;103156.75;5082060;27;62139;-77
2022/01/28 03:06:38;;;;;;;;;31.50;24.25;;;;;13.82;74.62;103155.34;5081522;28;61987;-78
2022/01/28 03:09:15;;;;;;;;;35.00;29.75;;;;;13.82;74.19;103145.69;5082306;27;61755;-77
2022/01/28 03:14:19;;;;;;;;;32.75;27.75;;;;;13.97;74.11;103126.41;5082058;27;62048;-77
2022/01/28 03:19:26;;;;;;;;;44.50;33.50;;;;;13.98;74.46;103128.25;5081889;27;62366;-78
2022/01/28 03:21:55;;;;;;;;;42.00;29.50;;;;;14.05;73.90;103127.84;5082446;27;61930;-78
2022/01/28 03:24:26;;;;;;;;;35.25;28.50;;;;;14.11;73.59;103130.91;5080971;28;61736;-78
2022/01/28 03:26:56;;;;;;;;;38.75;29.75;;;;;14.10;73.60;103127.34;5079453;28;63638;-78
2022/01/28 03:29:22;;;;;;;;;31.75;28.00;;;;;14.17;73.49;103130.41;5082387;27;61706;-78
2022/01/28 03:31:48;;;;;;;;;39.25;28.00;;;;;14.19;73.61;103134.97;5082443;27;62086;-78
2022/01/28 03:34:13;;;;;;;;;37.50;27.75;;;;;14.21;73.45;103130.72;5081908;27;61836;-77
2022/01/28 03:36:39;;;;;;;;;36.50;30.75;;;;;14.23;73.24;103137.00;5081000;28;63120;-78
2022/01/28 03:39:05;;;;;;;;;32.75;25.25;;;;;14.28;73.32;103130.31;5080585;28;61886;-78
2022/01/28 03:41:30;;;;;;;;;47.25;30.75;;;;;14.29;72.99;103144.44;5097330;27;61823;-78
2022/01/28 03:43:58;;;;;;;;;42.75;32.50;;;;;14.27;73.20;103139.06;5082145;27;61731;-78
2022/01/28 03:46:25;;;;;;;;;35.75;28.50;;;;;14.22;73.08;103139.53;5080200;28;65031;-78
2022/01/28 03:48:51;;;;;;;;;40.50;29.75;;;;;14.21;73.14;103146.56;5097599;27;62032;-78
2022/01/28 03:51:17;;;;;;;;;40.75;31.25;;;;;14.15;73.13;103155.81;5081738;27;62153;-78
2022/01/28 03:53:43;;;;;;;;;38.25;30.00;;;;;14.05;73.13;103146.31;5082157;27;62144;-78
2022/01/28 03:56:08;;;;;;;;;36.25;25.50;;;;;14.15;73.08;103174.28;5080106;28;61933;-78
2022/01/28 03:58:33;;;;;;;;;38.25;28.25;;;;;14.20;72.98;103175.50;5080520;27;61945;-78
2022/01/28 04:00:59;;;;;;;;;34.25;29.75;;;;;14.23;72.93;103179.28;5097521;27;61908;-78
2022/01/28 04:03:46;;;;;;;;;48.00;35.25;;;;;14.26;72.53;103183.84;5080499;28;62097;-78
2022/01/28 04:11:39;;;;;;;;;42.50;30.75;;;;;14.20;72.95;103178.16;5081748;28;62781;-77
2022/01/28 04:14:16;;;;;;;;;35.00;24.50;;;;;14.26;72.61;103182.13;5083145;28;62068;-78
2022/01/28 04:19:26;;;;;;;;;29.75;23.25;;;;;14.29;72.76;103170.88;5084690;28;61808;-78
2022/01/28 04:21:52;;;;;;;;;44.00;30.25;;;;;14.30;72.40;103172.69;5085215;28;62055;-78
2022/01/28 04:24:17;;;;;;;;;39.50;31.75;;;;;14.24;72.73;103167.88;5084362;27;62129;-77
2022/01/28 04:26:43;;;;;;;;;37.25;26.50;;;;;14.31;72.60;103172.78;5083833;28;61913;-78
2022/01/28 04:29:11;;;;;;;;;47.25;31.25;;;;;14.30;72.42;103178.88;5084567;28;61874;-77
2022/01/28 04:31:41;;;;;;;;;36.75;30.00;;;;;14.28;72.68;103187.50;5085075;28;61996;-78
2022/01/28 04:34:06;;;;;;;;;37.50;30.50;;;;;14.21;72.63;103194.09;5100557;27;61990;-77
2022/01/28 04:36:36;;;;;;;;;35.50;27.50;;;;;14.14;72.59;103183.00;5083635;28;62705;-77
2022/01/28 04:39:12;;;;;;;;;37.75;27.50;;;;;14.13;72.70;103179.47;5084153;27;61670;-78
2022/01/28 04:41:51;;;;;;;;;39.50;31.00;;;;;14.02;73.06;103183.09;5084641;28;62370;-78
2022/01/28 04:44:23;;;;;;;;;29.00;23.50;;;;;13.95;72.93;103184.41;5084660;28;61779;-77
2022/01/28 04:47:05;;;;;;;;;42.25;31.50;;;;;14.00;73.16;103180.34;5084009;28;62669;-78
2022/01/28 04:55:28;;;;;;;;;34.25;30.00;;;;;13.82;72.89;103203.75;5041308;28;61972;-78
2022/01/28 05:06:09;;;;;;;;;45.00;25.50;;;;;13.86;72.46;103207.50;5041260;28;62034;-78
2022/01/28 05:27:00;;;;;;;;;44.50;30.50;;;;;13.93;72.21;103235.28;5040952;28;61971;-77
2022/01/28 05:29:25;;;;;;;;;32.00;25.75;;;;;13.85;71.97;103232.09;5071378;28;62140;-78
2022/01/28 05:31:51;;;;;;;;;34.25;28.25;;;;;13.84;72.18;103232.88;5083626;28;61903;-77
2022/01/28 05:34:17;;;;;;;;;31.25;29.50;;;;;13.77;72.31;103236.81;5083558;28;62010;-78
2022/01/28 05:36:43;;;;;;;;;36.25;30.25;;;;;13.79;72.52;103237.84;5083157;27;62100;-77
2022/01/28 05:39:08;;;;;;;;;35.50;27.00;;;;;13.83;72.59;103236.34;5083195;28;61827;-77
2022/01/28 05:41:34;;;;;;;;;29.00;26.50;;;;;13.82;72.34;103232.78;5083470;28;62118;-78
2022/01/28 05:44:02;;;;;;;;;36.50;26.75;;;;;13.79;72.52;103242.22;5083723;28;62151;-77
2022/01/28 05:46:29;;;;;;;;;34.00;31.75;;;;;13.72;72.50;103243.50;5083837;28;62040;-77
2022/01/28 05:48:58;;;;;;;;;33.50;26.50;;;;;13.75;72.34;103258.63;5083231;27;61974;-78
2022/01/28 05:51:25;;;;;;;;;37.25;29.25;;;;;13.78;71.97;103254.50;5082826;28;61997;-77
2022/01/28 05:53:50;;;;;;;;;27.25;21.25;;;;;13.76;70.63;103263.13;5082217;28;62075;-78
2022/01/28 05:56:16;;;;;;;;;23.50;22.75;;;;;13.74;70.09;103260.38;5083083;28;61771;-78
2022/01/28 05:58:42;;;;;;;;;27.75;22.00;;;;;13.75;71.04;103263.91;5082830;28;62154;-77
2022/01/28 06:01:07;;;;;;;;;30.50;25.25;;;;;13.76;71.43;103268.41;5083432;28;61926;-79
2022/01/28 06:03:32;;;;;;;;;38.75;26.25;;;;;13.73;71.45;103279.63;5083372;27;61753;-77
2022/01/28 06:05:58;;;;;;;;;28.50;22.00;;;;;13.75;71.63;103282.41;5082501;28;61700;-82
2022/01/28 06:08:23;;;;;;;;;35.75;26.25;;;;;13.81;71.47;103280.19;5098345;27;61936;-82
2022/01/28 06:10:49;;;;;;;;;40.75;29.25;;;;;13.87;71.10;103276.25;5083212;28;61704;-82
2022/01/28 06:13:14;;;;;;;;;26.00;22.25;;;;;13.93;70.28;103269.59;5083352;28;61842;-84
2022/01/28 06:15:43;;;;;;;;;27.50;25.00;;;;;13.99;69.99;103270.94;5083134;28;61811;-82
2022/01/28 06:18:11;;;;;;;;;33.00;24.50;;;;;14.03;69.39;103274.69;5082529;28;61830;-84
2022/01/28 06:20:36;;;;;;;;;28.25;19.25;;;;;14.03;69.15;103282.63;5082247;28;62132;-79
2022/01/28 06:23:03;;;;;;;;;22.50;22.50;;;;;14.00;68.66;103272.78;5083084;27;61764;-85
2022/01/28 06:25:28;;;;;;;;;41.00;27.25;;;;;14.06;69.53;103280.22;5082706;28;62355;-79
2022/01/28 06:27:54;;;;;;;;;35.75;31.75;;;;;14.08;69.64;103276.88;5082630;28;62668;-78
2022/01/28 06:30:20;;;;;;;;;35.00;28.25;;;;;14.10;70.39;103277.91;5081728;28;62026;-77
2022/01/28 06:32:47;;;;;;;;;39.00;30.75;;;;;14.14;70.76;103279.03;5080935;28;62235;-77
2022/01/28 06:35:13;;;;;;;;;41.25;29.25;;;;;14.17;70.79;103273.03;5082145;27;61886;-79
2022/01/28 06:37:41;;;;;;;;;31.25;24.25;;;;;14.20;70.80;103267.97;5081159;28;62791;-77
2022/01/28 06:40:09;;;;;;;;;47.75;34.75;;;;;14.22;70.66;103269.91;5082647;27;62069;-76
2022/01/28 06:42:35;;;;;;;;;40.00;35.00;;;;;14.20;70.65;103279.44;5080320;28;61806;-79
2022/01/28 06:45:00;;;;;;;;;44.50;31.00;;;;;14.10;70.38;103280.53;5082702;27;62217;-80
2022/01/28 06:47:26;;;;;;;;;44.00;28.75;;;;;13.90;71.06;103289.72;5082045;27;61998;-76
2022/01/28 06:49:52;;;;;;;;;41.00;36.00;;;;;13.83;71.77;103295.34;5079982;28;61899;-76
2022/01/28 06:52:17;;;;;;;;;42.50;34.25;;;;;13.79;71.74;103289.72;5082363;28;62023;-76
2022/01/28 06:54:43;;;;;;;;;45.00;35.50;;;;;13.81;71.64;103291.66;5080735;28;61903;-76
2022/01/28 06:57:08;;;;;;;;;36.00;33.25;;;;;13.85;71.78;103293.72;5081353;27;61956;-77
2022/01/28 06:59:34;;;;;;;;;46.25;30.25;;;;;13.85;71.74;103292.81;5082528;28;61815;-77
2022/01/28 07:01:59;;;;;;;;;43.50;34.00;;;;;13.76;71.34;103294.81;5082203;27;61921;-77
2022/01/28 07:04:25;;;;;;;;;33.00;29.00;;;;;13.77;71.44;103300.16;5082840;27;62071;-78
2022/01/28 07:06:50;;;;;;;;;37.75;26.50;;;;;13.74;71.84;103299.97;5080152;27;61878;-77
2022/01/28 07:09:17;;;;;;;;;37.00;32.25;;;;;13.79;71.68;103298.56;5080612;28;61859;-79
2022/01/28 07:11:43;;;;;;;;;35.00;29.75;;;;;13.86;71.17;103298.22;5081285;27;62031;-77
2022/01/28 07:14:09;;;;;;;;;38.25;29.75;;;;;13.92;71.19;103300.34;5078832;28;61987;-77
2022/01/28 07:16:35;;;;;;;;;34.00;25.50;;;;;13.98;71.01;103305.16;5081779;27;62834;-78
2022/01/28 07:19:02;;;;;;;;;34.25;30.75;;;;;14.02;70.18;103315.13;5080472;28;61718;-77
2022/01/28 07:21:28;;;;;;;;;41.00;35.25;;;;;13.85;69.81;103319.22;5081007;27;62032;-77
2022/01/28 07:23:53;;;;;;;;;39.00;28.50;;;;;13.72;70.34;103321.78;5081249;28;62150;-78
2022/01/28 07:26:18;;;;;;;;;33.00;27.50;;;;;13.55;70.26;103320.56;5080394;27;61800;-77
2022/01/28 07:28:44;;;;;;;;;43.25;33.50;;;;;13.50;70.92;103322.88;5080496;28;61979;-77
2022/01/28 07:31:10;;;;;;;;;39.25;31.75;;;;;13.46;70.62;103329.63;5096813;27;62115;-77
2022/01/28 07:33:36;;;;;;;;;35.75;25.00;;;;;13.57;71.20;103333.06;5096917;27;61878;-80
2022/01/28 07:36:01;;;;;;;;;34.00;29.25;;;;;13.57;70.64;103332.16;5095186;27;64172;-76
2022/01/28 07:38:27;;;;;;;;;35.25;26.00;;;;;13.64;70.44;103329.13;5081650;28;61815;-77
2022/01/28 07:40:57;;;;;;;;;36.00;26.00;;;;;13.69;69.97;103338.31;5068223;28;61907;-77
2022/01/28 07:43:22;;;;;;;;;35.75;24.00;;;;;13.73;69.81;103345.63;5076417;27;61861;-78
2022/01/28 07:45:48;;;;;;;;;38.50;32.25;;;;;13.82;69.90;103341.03;5069874;28;62751;-79
2022/01/28 07:48:14;;;;;;;;;45.50;32.50;;;;;13.85;69.20;103346.53;5093326;27;61894;-84
2022/01/28 07:50:39;;;;;;;;;29.50;23.00;;;;;13.94;69.33;103353.28;5092539;27;61959;-81
2022/01/28 07:53:05;;;;;;;;;32.75;25.75;;;;;13.89;67.94;103345.94;5085187;27;62247;-80
2022/01/28 07:55:31;;;;;;;;;36.25;30.75;;;;;13.94;67.65;103364.75;5082067;28;63732;-80
2022/01/28 07:57:56;;;;;;;;;40.25;31.00;;;;;13.79;67.15;103364.56;5083040;28;61799;-80
2022/01/28 08:00:26;;;;;;;;;36.75;25.25;;;;;13.79;67.36;103375.13;5085200;27;61812;-80
2022/01/28 08:02:51;;;;;;;;;28.75;26.25;;;;;13.80;66.19;103368.13;5100645;27;61971;-83
2022/01/28 08:05:17;;;;;;;;;36.00;26.25;;;;;13.75;66.53;103369.50;5083818;27;61940;-79
2022/01/28 08:07:43;;;;;;;;;32.50;28.75;;;;;13.82;66.89;103371.81;5084608;27;62014;-79
2022/01/28 08:10:09;;;;;;;;;44.00;28.75;;;;;13.86;67.19;103371.19;5084783;27;61978;-79
2022/01/28 08:12:49;;;;;;;;;44.75;31.00;;;;;13.90;67.25;103376.84;5084539;27;62014;-79
2022/01/28 08:15:16;;;;;;;;;36.75;28.25;;;;;13.86;67.19;103368.56;5083874;28;62098;-79
2022/01/28 08:17:41;;;;;;;;;30.75;27.75;;;;;13.85;66.97;103379.94;5100711;27;61806;-79
2022/01/28 08:20:08;;;;;;;;;41.00;32.75;;;;;13.95;67.00;103377.16;5084607;27;61750;-77
2022/01/28 08:22:43;;;;;;;;;29.25;27.50;;;;;13.96;66.72;103378.06;5113112;27;62420;-79
2022/01/28 08:25:08;;;;;;;;;32.25;22.75;;;;;13.96;66.38;103380.72;5082930;28;61887;-79
2022/01/28 08:27:34;;;;;;;;;33.00;25.75;;;;;14.00;66.25;103386.31;5097294;27;62056;-79
2022/01/28 08:29:59;;;;;;;;;30.25;26.00;;;;;13.98;66.04;103390.56;5099358;27;61987;-79
2022/01/28 08:32:25;;;;;;;;;40.25;25.25;;;;;13.97;66.00;103387.81;5090036;27;61913;-79
2022/01/28 08:34:50;;;;;;;;;30.25;23.50;;;;;13.98;66.20;103400.22;5090294;27;63759;-79
2022/01/28 08:37:16;;;;;;;;;36.00;27.50;;;;;14.02;66.38;103403.19;5083102;27;62008;-79
2022/01/28 08:39:41;;;;;;;;;25.75;24.50;;;;;14.04;65.73;103414.78;5083917;27;61771;-79
2022/01/28 08:42:07;;;;;;;;;40.25;32.75;;;;;14.08;65.82;103406.28;5100251;27;62188;-79
2022/01/28 08:44:32;;;;;;;;;24.25;22.50;;;;;14.10;65.95;103420.53;5099242;27;63550;-79
2022/01/28 08:46:58;;;;;;;;;30.25;24.50;;;;;14.17;66.34;103420.97;5084359;28;62002;-79
2022/01/28 08:49:23;;;;;;;;;36.75;29.50;;;;;14.24;66.32;103423.22;5099750;27;62223;-80
2022/01/28 08:51:49;;;;;;;;;31.50;29.25;;;;;14.31;65.74;103428.19;5062328;28;62200;-79
2022/01/28 08:54:15;;;;;;;;;33.50;25.25;;;;;14.30;65.55;103434.25;5076344;28;61866;-78
2022/01/28 08:56:45;;;;;;;;;38.00;27.75;;;;;14.22;65.47;103440.69;5082187;28;62064;-79
2022/01/28 08:59:10;;;;;;;;;31.75;28.00;;;;;14.18;66.05;103449.22;5081618;27;61734;-79
2022/01/28 09:01:36;;;;;;;;;33.00;21.25;;;;;14.21;66.00;103449.44;5083767;28;61860;-79
2022/01/28 09:04:01;;;;;;;;;41.00;28.25;;;;;14.29;66.59;103449.19;5083218;28;61953;-79
2022/01/28 09:06:27;;;;;;;;;29.25;26.50;;;;;14.36;65.98;103444.34;5083635;27;61809;-79
2022/01/28 09:08:55;;;;;;;;;42.00;30.00;;;;;14.40;66.02;103439.38;5082753;28;61845;-79
2022/01/28 09:13:49;;;;;;;;;24.00;23.00;;;;;14.50;64.83;103447.19;5083319;27;61938;-79
2022/01/28 09:16:17;;;;;;;;;38.00;28.00;;;;;14.56;65.21;103445.78;5099438;27;61956;-79
2022/01/28 09:18:46;;;;;;;;;31.75;26.50;;;;;14.65;65.23;103446.44;5083727;27;61957;-79
2022/01/28 09:21:12;;;;;;;;;35.00;24.00;;;;;14.77;64.29;103449.94;5084020;28;62052;-79
2022/01/28 09:23:38;;;;;;;;;40.00;28.50;;;;;14.88;64.43;103443.69;5083417;27;61986;-79
2022/01/28 09:26:03;;;;;;;;;25.50;21.75;;;;;14.92;63.88;103432.50;5083103;27;61777;-79
2022/01/28 09:28:29;;;;;;;;;37.00;22.00;;;;;14.99;63.26;103440.88;5082112;28;61923;-79
2022/01/28 09:30:54;;;;;;;;;27.50;21.75;;;;;15.02;62.95;103442.00;5082501;28;62021;-79
2022/01/28 09:33:37;;;;;;;;;32.00;24.00;;;;;15.11;63.68;103449.66;5081877;28;63221;-79
2022/01/28 09:36:04;;;;;;;;;32.00;24.75;;;;;15.15;63.21;103443.75;5083352;27;61878;-79
2022/01/28 09:38:29;;;;;;;;;21.50;17.75;;;;;15.17;62.71;103436.84;5083681;28;61969;-79
2022/01/28 09:40:56;;;;;;;;;41.50;26.00;;;;;15.30;62.90;103447.44;5083449;27;61917;-79
2022/01/28 09:43:25;;;;;;;;;34.50;25.00;;;;;15.34;62.24;103445.94;5082616;28;62874;-79
2022/01/28 09:45:51;;;;;;;;;22.50;17.50;;;;;15.43;62.24;103437.69;5083528;28;61934;-79
2022/01/28 09:48:19;;;;;;;;;27.50;21.50;;;;;15.50;62.24;103432.91;5083617;27;61789;-79
2022/01/28 09:50:47;;;;;;;;;32.75;21.00;;;;;15.57;62.11;103436.88;5083402;27;61926;-79
2022/01/28 09:53:14;;;;;;;;;26.00;20.75;;;;;15.65;61.95;103432.09;5082937;27;62503;-79
2022/01/28 09:55:40;;;;;;;;;31.00;25.25;;;;;15.71;61.85;103437.78;5098642;27;61783;-79
2022/01/28 09:58:05;;;;;;;;;33.25;24.50;;;;;15.76;61.34;103433.75;5083326;27;61701;-79
2022/01/28 10:00:32;;;;;;;;;32.75;26.00;;;;;15.83;61.58;103433.34;5082726;27;61911;-79
2022/01/28 10:03:04;;;;;;;;;41.75;29.50;;;;;15.98;61.76;103444.03;5081448;28;62893;-79
2022/01/28 10:05:32;;;;;;;;;39.75;26.50;;;;;15.94;60.58;103437.59;5082194;27;62468;-79
2022/01/28 10:08:18;;;;;;;;;32.25;22.50;;;;;15.82;59.96;103443.84;5083498;28;61991;-79
2022/01/28 10:10:46;;;;;;;;;30.25;24.00;;;;;15.82;61.31;103436.78;5082109;27;62096;-79
2022/01/28 10:13:28;;;;;;;;;23.25;18.50;;;;;15.80;60.31;103442.81;5073972;28;62582;-79
2022/01/28 10:15:57;;;;;;;;;36.25;26.75;;;;;15.90;60.80;103447.91;5095552;27;62034;-79
2022/01/28 10:18:42;;;;;;;;;35.00;25.25;;;;;15.93;61.25;103449.00;5061316;28;61769;-79
2022/01/28 10:21:17;;;;;;;;;34.50;25.25;;;;;16.01;61.33;103453.91;5068493;28;61964;-79
2022/01/28 10:23:59;;;;;;;;;30.50;27.00;;;;;16.03;60.82;103444.31;5082464;28;61786;-79
2022/01/28 10:27:08;;;;;;;;;35.75;27.75;;;;;16.04;60.72;103447.03;5082146;28;61780;-79
2022/01/28 10:29:36;;;;;;;;;39.00;28.00;;;;;16.04;60.93;103455.00;5039884;28;62100;-79
2022/01/28 10:32:07;;;;;;;;;36.50;28.25;;;;;15.95;60.71;103460.63;5040039;28;61957;-79
2022/01/28 10:34:35;;;;;;;;;33.50;29.00;;;;;15.92;60.75;103454.22;5039095;28;63645;-79
2022/01/28 10:37:12;;;;;;;;;36.75;28.75;;;;;15.94;60.09;103460.53;5039576;28;62050;-79
2022/01/28 10:39:48;;;;;;;;;41.00;28.50;;;;;15.93;60.94;103474.59;5036998;28;62046;-79
2022/01/28 10:42:20;;;;;;;;;34.25;20.00;;;;;15.92;60.87;103476.31;5034893;28;61884;-79
2022/01/28 10:44:51;;;;;;;;;38.75;26.50;;;;;15.99;60.70;103471.44;5022205;28;61878;-79
2022/01/28 10:47:36;;;;;;;;;33.50;23.75;;;;;15.94;60.80;103479.09;5040063;28;61918;-79
2022/01/28 10:50:38;;;;;;;;;27.50;21.25;;;;;15.94;60.88;103479.09;5039382;28;61997;-79
2022/01/28 10:53:12;;;;;;;;;35.25;29.75;;;;;15.97;60.60;103475.72;4980012;28;61996;-79
2022/01/28 10:55:40;;;;;;;;;41.25;29.00;;;;;15.97;60.78;103473.06;4977999;28;62175;-79
2022/01/28 10:58:09;;;;;;;;;31.25;26.00;;;;;15.96;60.79;103469.50;4963935;28;62146;-79
2022/01/28 11:00:39;;;;;;;;;46.75;31.75;;;;;15.98;60.51;103473.19;4980063;28;62116;-79
2022/01/28 11:03:07;;;;;;;;;30.75;28.50;;;;;16.03;59.49;103477.03;4998683;28;61332;-79
2022/01/28 11:05:35;;;;;;;;;38.50;29.00;;;;;15.91;59.74;103476.22;5019896;28;63365;-79
2022/01/28 11:08:03;;;;;;;;;34.50;27.25;;;;;15.99;59.96;103480.28;5039039;28;61924;-79
2022/01/28 11:10:29;;;;;;;;;24.25;20.75;;;;;16.00;59.96;103476.81;5038898;28;62168;-79
2022/01/28 11:12:56;;;;;;;;;30.50;25.25;;;;;15.98;59.92;103480.19;5039283;28;62085;-79
2022/01/28 11:15:22;;;;;;;;;34.00;25.75;;;;;16.08;60.32;103472.94;5038715;28;61962;-79
2022/01/28 11:17:51;;;;;;;;;45.25;31.75;;;;;16.09;59.19;103469.47;5022698;28;61813;-79
2022/01/28 11:20:21;;;;;;;;;38.00;29.00;;;;;16.14;59.45;103460.09;5039300;28;61799;-79
2022/01/28 11:23:24;;;;;;;;;39.00;28.75;;;;;16.30;60.11;103469.00;5040760;28;61908;-79
2022/01/28 11:26:08;;;;;;;;;36.25;25.50;;;;;16.24;58.31;103456.31;5024012;28;63718;-79
2022/01/28 11:28:45;;;;;;;;;28.75;24.00;;;;;16.29;58.62;103452.19;5053733;28;61892;-79
2022/01/28 11:31:13;;;;;;;;;30.75;21.50;;;;;16.36;58.60;103461.47;5064049;28;61907;-77
2022/01/28 11:33:50;;;;;;;;;35.75;20.00;;;;;16.38;58.08;103454.50;5078601;28;61897;-76
2022/01/28 11:36:35;;;;;;;;;27.50;21.75;;;;;16.37;59.01;103442.09;5083722;27;61994;-76
2022/01/28 11:39:09;;;;;;;;;29.25;21.25;;;;;16.43;58.95;103445.13;5083727;28;62101;-76
2022/01/28 11:41:36;;;;;;;;;30.25;22.00;;;;;16.50;58.74;103450.00;5083409;28;62164;-76
2022/01/28 11:44:03;;;;;;;;;21.00;19.75;;;;;16.54;57.91;103430.81;5085336;27;61794;-75
2022/01/28 11:46:36;;;;;;;;;30.50;21.00;;;;;16.64;58.00;103424.31;5100330;27;63764;-76
2022/01/28 11:49:02;;;;;;;;;25.50;15.00;;;;;16.75;57.68;103428.59;5085512;28;61848;-76
2022/01/28 11:51:41;;;;;;;;;18.50;17.75;;;;;16.77;57.07;103426.94;5085210;28;61753;-76
2022/01/28 11:54:09;;;;;;;;;29.00;20.50;;;;;16.83;57.45;103428.16;5085271;27;62034;-76
2022/01/28 11:57:01;;;;;;;;;24.75;20.75;;;;;16.86;56.61;103426.63;5084046;28;62192;-75
2022/01/28 11:59:28;;;;;;;;;32.75;22.50;;;;;17.07;56.80;103403.09;5077147;27;61992;-77
2022/01/28 12:01:53;;;;;;;;;22.25;20.25;;;;;17.13;56.01;103414.06;5085153;28;61788;-73
2022/01/28 12:04:25;;;;;;;;;19.75;15.50;;;;;17.17;56.08;103412.53;5085179;28;62295;-75
2022/01/28 12:07:06;;;;;;;;;26.00;22.00;;;;;17.20;55.97;103395.88;5083732;28;61827;-77
2022/01/28 12:09:34;;;;;;;;;22.00;20.75;;;;;17.11;56.16;103389.19;5084404;28;61839;-77
2022/01/28 12:12:00;;;;;;;;;21.50;18.00;;;;;17.14;56.10;103401.75;5080619;28;62168;-79
2022/01/28 12:15:04;;;;;;;;;32.25;20.75;;;;;17.07;55.55;103396.88;5083727;27;61801;-79
2022/01/28 12:17:30;;;;;;;;;20.25;18.25;;;;;17.05;55.80;103387.91;5108273;27;64076;-79
2022/01/28 12:20:22;;;;;;;;;20.75;15.50;;;;;17.19;55.94;103387.00;5083215;27;61966;-79
2022/01/28 12:23:01;;;;;;;;;34.50;30.00;;;;;17.33;55.50;103394.03;5089878;27;62170;-79
2022/01/28 12:25:35;;;;;;;;;56.25;43.25;;;;;17.49;55.45;103376.34;5081144;28;61933;-79
2022/01/28 12:28:13;;;;;;;;;44.25;37.50;;;;;17.61;54.53;103357.53;5078634;28;61936;-79
2022/01/28 12:30:42;;;;;;;;;28.50;22.75;;;;;17.66;54.17;103356.06;5080044;28;62066;-78